Skip Navigation LinksHome page > Weather > Current weather Skip Navigation Links

Current Weather

Indira Gandhi Intl Apt, New Delhi, India

For information only: do not use for flight planning or navigation.
Latest weather
Observation time Saturday, June 24, 2017 1:30 AM IST
Local time Saturday, June 24, 2017 2:08 AM IST
Flight conditions Instrument Meteorological Conditions
Winds
Wind speed calm
Visibility 1.9 mi.
Present weather haze
Sky condition
Ceiling unlimited
Temperature 88°F
Dewpoint 75°F
Altimeter 29.53 in.Hg
Derived measurements
Relative humidity 66%
Heat index 98°F
Density altitude 3440 ft.
Remarks
No significant changes expected in the next two hours.
METAR VIDP 232000Z 00000KT 3000 HZ NSC 31/24 Q1000 NOSIG

Settings

Location code

InnerDrive.Weather 4.0.6144.1 Release CLR 4.0.30319.36366
Copyright ©2015 Inner Drive Technology. All rights reserved. Portions Copyright ©1986-2015 David Braverman.

Find weather

Site navigation


Skip Navigation Links

Place info

Page info

PayPal - The safer, easier way to pay online!

Return home.

Copyright ©2017 Inner Drive Technology. Purveyors of fine, hand-crafted computer software. Page printed 2017-06-23T20:38:55 UTC.